createdAt,value
2022-08-07T00:00:53.655Z,98802.38
2022-08-07T00:03:25.715Z,98795.31
2022-08-07T00:05:54.336Z,98803.09
2022-08-07T00:08:23.363Z,98796.72
2022-08-07T00:10:57.607Z,98797.50
2022-08-07T00:13:27.171Z,98785.28
2022-08-07T00:15:55.878Z,98786.44
2022-08-07T00:18:26.342Z,98794.69
2022-08-07T00:20:57.527Z,98798.94
2022-08-07T00:23:30.624Z,98798.16
2022-08-07T00:26:10.828Z,98799.38
2022-08-07T00:28:45.648Z,98801.09
2022-08-07T00:31:16.599Z,98805.22
2022-08-07T00:33:47.605Z,98800.53
2022-08-07T00:36:16.959Z,98809.56
2022-08-07T00:38:45.005Z,98808.84
2022-08-07T00:41:14.990Z,98815.59
2022-08-07T00:44:00.821Z,98814.78
2022-08-07T00:46:33.111Z,98807.78
2022-08-07T00:49:03.244Z,98812.47
2022-08-07T00:51:58.285Z,98814.06
2022-08-07T00:54:20.540Z,98814.06
2022-08-07T00:56:52.365Z,98812.91
2022-08-07T00:59:35.213Z,98810.97
2022-08-07T01:02:03.912Z,98804.50
2022-08-07T01:04:43.137Z,98810.63
2022-08-07T01:07:11.814Z,98808.22
2022-08-07T01:10:04.043Z,98802.22
2022-08-07T01:12:31.382Z,98810.72
2022-08-07T01:15:01.433Z,98797.69
2022-08-07T01:17:31.773Z,98802.53
2022-08-07T01:20:06.438Z,98804.13
2022-08-07T01:22:37.390Z,98810.34
2022-08-07T01:25:54.579Z,98807.97
2022-08-07T01:28:02.710Z,98809.13
2022-08-07T01:30:32.161Z,98804.03
2022-08-07T01:33:00.517Z,98805.56
2022-08-07T01:35:36.857Z,98801.66
2022-08-07T01:38:24.851Z,98811.78
2022-08-07T01:40:55.455Z,98803.09
2022-08-07T01:43:25.821Z,98803.53
2022-08-07T01:45:55.565Z,98803.09
2022-08-07T01:48:30.328Z,98793.53
2022-08-07T01:51:24.407Z,98794.31
2022-08-07T01:54:09.571Z,98788.75
2022-08-07T01:56:49.293Z,98788.75
2022-08-07T01:59:24.166Z,98783.94
2022-08-07T02:02:04.474Z,98787.97
2022-08-07T02:04:52.598Z,98784.44
2022-08-07T02:07:36.095Z,98793.78
2022-08-07T02:10:24.637Z,98799.72
2022-08-07T02:12:55.613Z,98795.81
2022-08-07T02:15:28.978Z,98786.16
2022-08-07T02:17:59.834Z,98792.84
2022-08-07T02:20:28.608Z,98800.72
2022-08-07T02:22:59.785Z,98793.97
2022-08-07T02:26:31.412Z,98791.66
2022-08-07T02:28:25.398Z,98799.91
2022-08-07T02:30:56.923Z,98798.75
2022-08-07T02:33:33.040Z,98796.72
2022-08-07T02:36:29.723Z,98788.91
2022-08-07T02:39:16.066Z,98789.63
2022-08-07T02:41:54.381Z,98792.09
2022-08-07T02:44:26.806Z,98792.03
2022-08-07T02:47:05.075Z,98799.56
2022-08-07T02:49:58.676Z,98799.91
2022-08-07T02:52:32.090Z,98807.44
2022-08-07T02:55:04.564Z,98804.78
2022-08-07T02:57:47.315Z,98813.47
2022-08-07T03:00:16.795Z,98811.94
2022-08-07T03:02:54.429Z,98807.25
2022-08-07T03:05:24.470Z,98802.97
2022-08-07T03:08:04.965Z,98802.63
2022-08-07T03:10:40.932Z,98805.72
2022-08-07T03:13:19.740Z,98808.03
2022-08-07T03:15:56.697Z,98802.47
2022-08-07T03:18:34.785Z,98814.94
2022-08-07T03:21:08.203Z,98803.53
2022-08-07T03:24:18.917Z,98806.97
2022-08-07T03:26:31.062Z,98806.03
2022-08-07T03:29:03.441Z,98813.97
2022-08-07T03:31:43.274Z,98809.22
2022-08-07T03:34:22.161Z,98804.75
2022-08-07T03:36:53.636Z,98807.50
2022-08-07T03:39:46.288Z,98817.16
2022-08-07T03:42:13.341Z,98810.53
2022-08-07T03:44:47.227Z,98811.41
2022-08-07T03:47:22.778Z,98808.66
2022-08-07T03:49:52.375Z,98804.22
2022-08-07T03:52:26.427Z,98819.19
2022-08-07T03:54:59.011Z,98816.69
2022-08-07T03:58:35.293Z,98811.13
2022-08-07T04:00:30.228Z,98811.22
2022-08-07T04:02:59.510Z,98810.16
2022-08-07T04:05:39.872Z,98825.38
2022-08-07T04:08:11.259Z,98826.19
2022-08-07T04:10:42.226Z,98826.72
2022-08-07T04:13:15.273Z,98821.75
2022-08-07T04:15:45.747Z,98836.75
2022-08-07T04:18:57.183Z,98826.28
2022-08-07T04:21:07.318Z,98831.59
2022-08-07T04:23:43.857Z,98830.44
2022-08-07T04:26:24.018Z,98830.88
2022-08-07T04:28:56.409Z,98839.13
2022-08-07T04:31:39.008Z,98832.03
2022-08-07T04:34:17.359Z,98841.41
2022-08-07T04:36:56.152Z,98834.59
2022-08-07T04:39:26.283Z,98836.03
2022-08-07T04:41:54.653Z,98840.38
2022-08-07T04:44:22.910Z,98843.22
2022-08-07T04:47:07.938Z,98844.00
2022-08-07T04:49:57.987Z,98852.69
2022-08-07T04:52:38.334Z,98856.75
2022-08-07T04:58:11.443Z,98862.25
2022-08-07T04:58:43.131Z,98863.94
2022-08-07T05:01:18.049Z,98851.34
2022-08-07T05:04:07.353Z,98858.53
2022-08-07T05:06:57.600Z,98860.91
2022-08-07T05:09:43.206Z,98862.50
2022-08-07T05:12:26.830Z,98862.41
2022-08-07T05:15:04.947Z,98860.81
2022-08-07T05:17:52.697Z,98855.41
2022-08-07T05:20:28.093Z,98856.66
2022-08-07T05:23:05.225Z,98852.66
2022-08-07T05:25:54.373Z,98853.03
2022-08-07T05:28:26.809Z,98854.25
2022-08-07T05:30:57.858Z,98854.78
2022-08-07T05:33:29.344Z,98865.50
2022-08-07T05:36:00.036Z,98875.47
2022-08-07T05:38:58.053Z,98871.59
2022-08-07T05:41:18.695Z,98867.41
2022-08-07T05:44:11.960Z,98871.75
2022-08-07T05:46:42.814Z,98865.56
2022-08-07T05:49:13.114Z,98875.81
2022-08-07T05:51:46.190Z,98872.78
2022-08-07T05:54:31.192Z,98873.69
2022-08-07T05:57:04.826Z,98871.00
2022-08-07T05:59:47.244Z,98876.84
2022-08-07T06:02:29.589Z,98868.72
2022-08-07T06:05:03.647Z,98872.50
2022-08-07T06:08:14.461Z,98874.38
2022-08-07T06:10:22.758Z,98874.38
2022-08-07T06:12:50.774Z,98874.38
2022-08-07T06:15:19.911Z,98868.72
2022-08-07T06:17:53.858Z,98879.72
2022-08-07T06:20:32.079Z,98878.13
2022-08-07T06:23:46.084Z,98867.41
2022-08-07T06:26:03.241Z,98875.22
2022-08-07T06:28:31.782Z,98880.78
2022-08-07T06:30:59.542Z,98888.25
2022-08-07T06:33:29.743Z,98883.47
2022-08-07T06:36:12.796Z,98885.03
2022-08-07T06:38:51.303Z,98881.97
2022-08-07T06:42:02.933Z,98879.47
2022-08-07T06:44:24.255Z,98890.38
2022-08-07T06:46:53.559Z,98893.56
2022-08-07T06:49:52.396Z,98889.66
2022-08-07T06:52:31.694Z,98897.63
2022-08-07T06:55:31.679Z,98884.50
2022-08-07T06:57:59.772Z,98890.88
2022-08-07T07:00:28.943Z,98885.38
2022-08-07T07:03:01.272Z,98883.06
2022-08-07T07:06:03.134Z,98900.88
2022-08-07T07:08:29.280Z,98898.84
2022-08-07T07:10:58.822Z,98901.31
2022-08-07T07:13:55.701Z,98891.28
2022-08-07T07:16:27.566Z,98894.53
2022-08-07T07:19:56.308Z,98882.09
2022-08-07T07:22:05.491Z,98891.72
2022-08-07T07:24:58.465Z,98888.88
2022-08-07T07:27:58.374Z,98899.22
2022-08-07T07:30:38.705Z,98900.44
2022-08-07T07:33:11.680Z,98898.63
2022-08-07T07:35:50.657Z,98888.06
2022-08-07T07:38:32.758Z,98890.53
2022-08-07T07:41:08.921Z,98892.56
2022-08-07T07:44:14.401Z,98889.19
2022-08-07T07:46:40.303Z,98901.56
2022-08-07T07:50:32.772Z,98895.41
2022-08-07T07:52:12.793Z,98903.94
2022-08-07T07:54:44.159Z,98901.00
2022-08-07T07:57:52.459Z,98897.13
2022-08-07T08:00:20.769Z,98903.25
2022-08-07T08:03:05.781Z,98908.88
2022-08-07T08:05:54.311Z,98908.06
2022-08-07T08:08:35.744Z,98911.31
2022-08-07T08:11:08.148Z,98911.91
2022-08-07T08:13:54.165Z,98908.59
2022-08-07T08:16:31.242Z,98910.84
2022-08-07T08:19:17.321Z,98904.41
2022-08-07T08:22:09.850Z,98909.81
2022-08-07T08:25:18.744Z,98911.41
2022-08-07T08:27:56.677Z,98912.22
2022-08-07T08:30:34.797Z,98913.91
2022-08-07T08:33:10.568Z,98916.47
2022-08-07T08:35:49.746Z,98914.97
2022-08-07T08:38:21.573Z,98913.16
2022-08-07T08:41:04.973Z,98894.63
2022-08-07T08:43:42.774Z,98911.22
2022-08-07T08:46:35.129Z,98914.50
2022-08-07T08:49:14.201Z,98916.69
2022-08-07T08:52:12.760Z,98904.56
2022-08-07T08:54:48.164Z,98909.00
2022-08-07T08:57:26.935Z,98909.88
2022-08-07T09:00:04.277Z,98916.63
2022-08-07T09:02:39.630Z,98926.59
2022-08-07T09:05:32.047Z,98916.81
2022-08-07T09:08:28.319Z,98917.34
2022-08-07T09:11:08.284Z,98921.00
2022-08-07T09:13:42.862Z,98916.22
2022-08-07T09:16:22.504Z,98914.31
2022-08-07T09:19:44.591Z,98911.28
2022-08-07T09:24:28.719Z,98902.75
2022-08-07T09:25:17.624Z,98906.91
2022-08-07T09:28:01.100Z,98905.88
2022-08-07T09:30:44.241Z,98895.72
2022-08-07T09:33:41.126Z,98909.25
2022-08-07T09:36:33.547Z,98895.19
2022-08-07T09:39:54.420Z,98890.59
2022-08-07T09:42:34.956Z,98892.34
2022-08-07T09:47:27.739Z,98892.44
2022-08-07T09:48:15.270Z,98888.91
2022-08-07T09:51:01.932Z,98894.81
2022-08-07T09:53:41.102Z,98889.28
2022-08-07T09:56:46.391Z,98896.41
2022-08-07T09:59:46.486Z,98881.41
2022-08-07T10:02:58.011Z,98880.63
2022-08-07T10:06:11.825Z,98881.81
2022-08-07T10:08:58.180Z,98878.22
2022-08-07T10:12:00.970Z,98879.41
2022-08-07T10:14:55.519Z,98871.13
2022-08-07T10:18:01.617Z,98861.63
2022-08-07T10:20:41.098Z,98855.69
2022-08-07T10:24:06.927Z,98864.78
2022-08-07T10:26:53.027Z,98860.03
2022-08-07T10:29:45.673Z,98856.03
2022-08-07T10:32:52.292Z,98859.22
2022-08-07T10:35:55.593Z,98848.09
2022-08-07T10:38:36.235Z,98840.97
2022-08-07T10:41:52.119Z,98856.00
2022-08-07T10:44:19.310Z,98836.25
2022-08-07T10:47:01.242Z,98845.00
2022-08-07T10:52:31.861Z,98832.28
2022-08-07T10:55:26.926Z,98837.88
2022-08-07T10:58:11.762Z,98836.28
2022-08-07T11:00:55.970Z,98826.72
2022-08-07T11:03:37.400Z,98825.50
2022-08-07T11:06:21.960Z,98816.34
2022-08-07T11:08:55.618Z,98811.50
2022-08-07T11:11:28.595Z,98814.53
2022-08-07T11:14:43.826Z,98814.59
2022-08-07T11:16:59.391Z,98807.03
2022-08-07T11:19:38.989Z,98803.31
2022-08-07T11:22:26.438Z,98820.03
2022-08-07T11:25:06.746Z,98806.66
2022-08-07T11:28:01.257Z,98809.06
2022-08-07T11:30:42.267Z,98804.47
2022-08-07T11:33:59.523Z,98794.94
2022-08-07T11:36:30.555Z,98800.09
2022-08-07T11:39:09.282Z,98800.47
2022-08-07T11:42:00.021Z,98799.28
2022-08-07T11:44:40.476Z,98804.47
2022-08-07T11:47:31.368Z,98801.31
2022-08-07T11:50:31.896Z,98791.81
2022-08-07T11:53:15.114Z,98787.84
2022-08-07T11:56:09.083Z,98789.13
2022-08-07T11:58:57.338Z,98789.50
2022-08-07T12:01:59.457Z,98787.53
2022-08-07T12:04:43.849Z,98789.50
2022-08-07T12:07:27.598Z,98783.94
2022-08-07T12:10:14.798Z,98787.00
2022-08-07T12:12:47.621Z,98774.41
2022-08-07T12:15:46.248Z,98766.50
2022-08-07T12:18:16.110Z,98783.03
2022-08-07T12:21:02.886Z,98783.78
2022-08-07T12:24:07.142Z,98777.59
2022-08-07T12:26:46.615Z,98778.78
2022-08-07T12:29:38.287Z,98780.06
2022-08-07T12:32:15.343Z,98780.22
2022-08-07T12:34:49.393Z,98774.16
2022-08-07T12:37:27.756Z,98778.31
2022-08-07T12:40:00.034Z,98774.34
2022-08-07T12:42:32.200Z,98765.25
2022-08-07T12:45:14.529Z,98764.69
2022-08-07T12:47:49.476Z,98760.59
2022-08-07T12:50:38.513Z,98761.72
2022-08-07T12:53:17.706Z,98753.13
2022-08-07T12:56:04.229Z,98763.50
2022-08-07T12:58:42.940Z,98762.03
2022-08-07T13:01:32.530Z,98750.22
2022-08-07T13:04:31.631Z,98755.50
2022-08-07T13:08:12.555Z,98767.09
2022-08-07T13:10:37.720Z,98760.50
2022-08-07T13:13:47.369Z,98751.41
2022-08-07T13:16:25.598Z,98751.84
2022-08-07T13:19:02.569Z,98749.44
2022-08-07T13:21:50.316Z,98751.69
2022-08-07T13:24:29.254Z,98744.50
2022-08-07T13:27:05.611Z,98739.66
2022-08-07T13:29:42.564Z,98748.69
2022-08-07T13:32:31.935Z,98750.53
2022-08-07T13:35:09.236Z,98745.88
2022-08-07T13:37:49.675Z,98741.25
2022-08-07T13:40:36.127Z,98743.66
2022-08-07T13:43:13.710Z,98738.94
2022-08-07T13:46:12.527Z,98732.50
2022-08-07T13:48:38.596Z,98716.97
2022-08-07T13:51:27.548Z,98723.38
2022-08-07T13:54:02.072Z,98728.91
2022-08-07T13:56:36.135Z,98722.66
2022-08-07T13:59:13.485Z,98717.91
2022-08-07T14:02:04.137Z,98717.41
2022-08-07T14:04:49.187Z,98718.94
2022-08-07T14:07:23.093Z,98710.84
2022-08-07T14:10:01.229Z,98711.06
2022-08-07T14:12:41.948Z,98708.75
2022-08-07T14:15:38.088Z,98704.81
2022-08-07T14:18:28.657Z,98716.66
2022-08-07T14:21:08.094Z,98709.63
2022-08-07T14:24:00.539Z,98698.63
2022-08-07T14:26:38.172Z,98703.72
2022-08-07T14:30:05.217Z,98698.50
2022-08-07T14:32:02.452Z,98699.69
2022-08-07T14:34:33.855Z,98690.13
2022-08-07T14:37:05.080Z,98690.13
2022-08-07T14:40:16.128Z,98694.53
2022-08-07T14:43:56.037Z,98687.50
2022-08-07T14:48:22.022Z,98677.22
2022-08-07T14:51:00.900Z,98686.72
2022-08-07T15:02:33.089Z,98679.03
2022-08-07T15:07:51.123Z,98667.94
2022-08-07T15:10:26.720Z,98666.75
2022-08-07T15:12:59.231Z,98667.81
2022-08-07T15:15:39.209Z,98662.38
2022-08-07T15:18:28.444Z,98663.84
2022-08-07T15:21:08.140Z,98655.84
2022-08-07T15:26:36.581Z,98656.47
2022-08-07T15:30:10.104Z,98651.69
2022-08-07T15:32:04.987Z,98652.75
2022-08-07T15:34:37.433Z,98658.28
2022-08-07T15:37:27.498Z,98647.25
2022-08-07T15:40:01.122Z,98653.91
2022-08-07T15:42:55.504Z,98644.38
2022-08-07T15:45:55.420Z,98637.69
2022-08-07T15:48:25.704Z,98646.19
2022-08-07T15:51:07.929Z,98636.66
2022-08-07T15:53:52.240Z,98633.16
2022-08-07T15:56:25.792Z,98626.13
2022-08-07T15:58:59.194Z,98625.97
2022-08-07T16:01:38.325Z,98634.97
2022-08-07T16:04:14.797Z,98625.22
2022-08-07T16:06:55.917Z,98630.41
2022-08-07T16:09:42.279Z,98624.78
2022-08-07T16:12:28.661Z,98621.16
2022-08-07T16:15:55.004Z,98623.72
2022-08-07T16:18:14.477Z,98628.88
2022-08-07T16:21:44.113Z,98625.19
2022-08-07T16:24:02.033Z,98622.56
2022-08-07T16:26:59.206Z,98612.72
2022-08-07T16:30:09.832Z,98616.91
2022-08-07T16:32:54.617Z,98608.28
2022-08-07T16:35:50.639Z,98605.13
2022-08-07T16:38:59.849Z,98608.09
2022-08-07T16:41:41.735Z,98607.63
2022-08-07T16:45:15.217Z,98613.78
2022-08-07T16:48:28.511Z,98609.50
2022-08-07T16:51:54.150Z,98610.03
2022-08-07T16:54:21.395Z,98606.50
2022-08-07T16:58:00.718Z,98602.03
2022-08-07T17:00:15.305Z,98604.16
2022-08-07T17:03:58.056Z,98587.22
2022-08-07T17:06:39.839Z,98610.94
2022-08-07T17:10:08.389Z,98604.66
2022-08-07T17:12:35.582Z,98611.41
2022-08-07T17:15:17.414Z,98613.41
2022-08-07T17:17:54.142Z,98603.94
2022-08-07T17:20:31.751Z,98599.28
2022-08-07T17:23:11.387Z,98604.16
2022-08-07T17:26:04.421Z,98601.91
2022-08-07T17:28:38.195Z,98605.88
2022-08-07T17:31:15.997Z,98607.88
2022-08-07T17:34:17.914Z,98602.75
2022-08-07T17:36:57.540Z,98605.97
2022-08-07T17:39:57.795Z,98604.44
2022-08-07T17:42:34.076Z,98602.84
2022-08-07T17:45:15.088Z,98607.56
2022-08-07T17:47:53.965Z,98603.22
2022-08-07T17:50:33.109Z,98603.63
2022-08-07T17:53:08.625Z,98609.13
2022-08-07T17:56:06.938Z,98617.78
2022-08-07T17:58:46.316Z,98594.78
2022-08-07T18:01:29.046Z,98607.03
2022-08-07T18:04:16.251Z,98602.69
2022-08-07T18:06:58.219Z,98613.72
2022-08-07T18:10:05.093Z,98617.59
2022-08-07T18:12:49.419Z,98626.28
2022-08-07T18:15:23.816Z,98623.13
2022-08-07T18:18:44.805Z,98628.25
2022-08-07T18:21:37.219Z,98626.28
2022-08-07T18:24:07.055Z,98623.13
2022-08-07T18:27:00.981Z,98624.66
2022-08-07T18:30:07.660Z,98629.44
2022-08-07T18:32:46.318Z,98634.13
2022-08-07T18:35:21.510Z,98625.41
2022-08-07T18:38:58.988Z,98637.63
2022-08-07T18:41:09.091Z,98633.25
2022-08-07T18:44:00.139Z,98628.03
2022-08-07T18:46:42.944Z,98631.19
2022-08-07T18:50:32.560Z,98637.81
2022-08-07T18:52:38.064Z,98627.88
2022-08-07T18:55:43.476Z,98629.38
2022-08-07T18:58:52.225Z,98634.84
2022-08-07T19:02:17.517Z,98635.94
2022-08-07T19:04:54.437Z,98632.69
2022-08-07T19:07:34.890Z,98632.31
2022-08-07T19:10:14.823Z,98644.91
2022-08-07T19:12:59.163Z,98642.16
2022-08-07T19:16:05.269Z,98637.41
2022-08-07T19:18:35.862Z,98636.94
2022-08-07T19:21:45.040Z,98635.75
2022-08-07T19:24:10.590Z,98634.19
2022-08-07T19:28:28.326Z,98640.03
2022-08-07T19:31:04.083Z,98641.97
2022-08-07T19:32:42.350Z,98648.16
2022-08-07T19:35:18.130Z,98643.22
2022-08-07T19:37:55.151Z,98642.19
2022-08-07T19:40:31.198Z,98649.28
2022-08-07T19:43:08.391Z,98649.25
2022-08-07T19:46:07.968Z,98643.50
2022-08-07T19:48:43.807Z,98647.03
2022-08-07T19:51:20.251Z,98652.94
2022-08-07T19:54:31.808Z,98650.72
2022-08-07T19:57:51.683Z,98655.81
2022-08-07T19:59:40.813Z,98657.63
2022-08-07T20:02:29.721Z,98663.06
2022-08-07T20:05:00.394Z,98662.25
2022-08-07T20:07:47.609Z,98654.50
2022-08-07T20:10:37.290Z,98658.78
2022-08-07T20:13:22.467Z,98665.44
2022-08-07T20:15:55.278Z,98662.25
2022-08-07T20:18:32.752Z,98668.09
2022-08-07T20:21:20.815Z,98665.34
2022-08-07T20:24:00.351Z,98678.25
2022-08-07T20:26:38.605Z,98670.00
2022-08-07T20:29:49.347Z,98665.16
2022-08-07T20:32:11.301Z,98679.41
2022-08-07T20:34:52.545Z,98675.50
2022-08-07T20:37:29.762Z,98680.88
2022-08-07T20:40:33.087Z,98679.16
2022-08-07T20:42:57.705Z,98690.03
2022-08-07T20:45:33.185Z,98691.63
2022-08-07T20:48:29.737Z,98683.38
2022-08-07T20:51:01.006Z,98691.19
2022-08-07T20:54:04.101Z,98686.72
2022-08-07T20:56:26.254Z,98690.63
2022-08-07T20:58:58.635Z,98685.84
2022-08-07T21:01:29.888Z,98690.63
2022-08-07T21:04:23.787Z,98689.13
2022-08-07T21:06:57.421Z,98687.59
2022-08-07T21:09:51.646Z,98681.94
2022-08-07T21:12:25.672Z,98676.53
2022-08-07T21:14:58.326Z,98679.78
2022-08-07T21:18:04.071Z,98674.91
2022-08-07T21:20:29.861Z,98679.19
2022-08-07T21:23:07.710Z,98683.84
2022-08-07T21:25:56.256Z,98677.91
2022-08-07T21:28:49.267Z,98684.19
2022-08-07T21:31:49.589Z,98669.91
2022-08-07T21:34:26.733Z,98684.88
2022-08-07T21:37:04.638Z,98677.78
2022-08-07T21:39:51.481Z,98689.63
2022-08-07T21:42:46.243Z,98689.53
2022-08-07T21:46:09.549Z,98681.47
2022-08-07T21:48:28.743Z,98687.94
2022-08-07T21:51:06.458Z,98687.88
2022-08-07T21:53:46.521Z,98681.88
2022-08-07T21:56:36.017Z,98683.75
2022-08-07T21:59:08.669Z,98690.72
2022-08-07T22:02:07.500Z,98695.75
2022-08-07T22:04:37.919Z,98697.44
2022-08-07T22:07:15.506Z,98697.28
2022-08-07T22:09:54.299Z,98694.03
2022-08-07T22:12:31.649Z,98694.16
2022-08-07T22:16:39.458Z,98691.25
2022-08-07T22:17:57.936Z,98692.69
2022-08-07T22:20:35.402Z,98688.72
2022-08-07T22:23:18.681Z,98685.72
2022-08-07T22:25:58.878Z,98693.72
2022-08-07T22:28:34.637Z,98695.16
2022-08-07T22:31:07.813Z,98691.06
2022-08-07T22:33:56.538Z,98692.00
2022-08-07T22:36:36.139Z,98692.13
2022-08-07T22:39:15.583Z,98685.78
2022-08-07T22:42:10.590Z,98676.28
2022-08-07T22:44:58.114Z,98678.63
2022-08-07T22:47:41.566Z,98679.75
2022-08-07T22:50:37.158Z,98672.22
2022-08-07T22:54:05.422Z,98676.56
2022-08-07T22:56:15.044Z,98684.81
2022-08-07T22:59:05.082Z,98673.75
2022-08-07T23:01:59.194Z,98687.34
2022-08-07T23:04:57.720Z,98677.97
2022-08-07T23:07:54.223Z,98680.63
2022-08-07T23:10:38.183Z,98675.25
2022-08-07T23:13:29.546Z,98671.72
2022-08-07T23:16:44.711Z,98668.91
2022-08-07T23:19:57.770Z,98672.78
2022-08-07T23:22:39.090Z,98665.13
2022-08-07T23:25:28.612Z,98659.97
2022-08-07T23:28:21.027Z,98662.13
2022-08-07T23:31:18.511Z,98669.69
2022-08-07T23:34:36.887Z,98667.78
2022-08-07T23:37:24.475Z,98664.88
2022-08-07T23:40:03.847Z,98668.75
2022-08-07T23:42:53.412Z,98670.34
2022-08-07T23:46:01.448Z,98671.03
2022-08-07T23:49:15.598Z,98673.00
2022-08-07T23:53:05.691Z,98671.13
2022-08-07T23:54:46.432Z,98671.03
2022-08-07T23:57:27.578Z,98666.25
